Time;durP1;ratioP1;P1;durP2;ratioP2;P2;SDS_P1;SDS_P2;PMS_P1;PMS_P2;Temp;Humidity;BMP_temperature;BMP_pressure;BME280_temperature;BME280_humidity;BME280_pressure;Samples;Min_cycle;Max_cycle;Signal;HPM_P1;HPM_P2
2022/08/04 00:00:38;;;;;;;;;;;;;;;;;;5026550;28;19909;-77
2022/08/04 00:03:24;;;;;;;;;;;;;;;;;;5024250;28;19916;-77
2022/08/04 00:06:11;;;;;;;;;;;;;;;;;;5021673;28;19932;-79
2022/08/04 00:08:57;;;;;;;;;;;;;;;;;;5014261;28;19918;-77
2022/08/04 00:11:44;;;;;;;;;;;;;;;;;;5025941;28;19909;-78
2022/08/04 00:14:30;;;;;;;;;;;;;;;;;;5028734;28;19909;-79
2022/08/04 00:17:17;;;;;;;;;;;;;;;;;;5027210;28;20340;-79
2022/08/04 00:20:04;;;;;;;;;;;;;;;;;;5024783;28;19913;-79
2022/08/04 00:22:51;;;;;;;;;;;;;;;;;;5024562;28;19917;-79
2022/08/04 00:25:39;;;;;;;;;;;;;;;;;;5026735;28;19909;-82
2022/08/04 00:28:25;;;;;;;;;;;;;;;;;;5022784;28;19923;-79
2022/08/04 00:31:12;;;;;;;;;;;;;;;;;;5016039;28;19909;-79
2022/08/04 00:33:58;;;;;;;;;;;;;;;;;;5021758;28;19916;-80
2022/08/04 00:36:45;;;;;;;;;;;;;;;;;;5031382;28;19916;-80
2022/08/04 00:39:31;;;;;;;;;;;;;;;;;;5038876;28;19912;-79
2022/08/04 00:42:18;;;;;;;;;;;;;;;;;;5015992;28;19913;-79
2022/08/04 00:45:04;;;;;;;;;;;;;;;;;;5020301;28;19916;-79
2022/08/04 00:47:51;;;;;;;;;;;;;;;;;;5029528;28;19932;-80
2022/08/04 00:50:37;;;;;;;;;;;;;;;;;;5020245;28;19915;-79
2022/08/04 00:53:24;;;;;;;;;;;;;;;;;;5028837;28;19917;-79
2022/08/04 00:56:10;;;;;;;;;;;;;;;;;;5019694;28;19923;-79
2022/08/04 00:58:57;;;;;;;;;;;;;;;;;;5031104;28;20363;-78
2022/08/04 01:01:44;;;;;;;;;;;;;;;;;;5025170;28;19917;-79
2022/08/04 01:04:30;;;;;;;;;;;;;;;;;;5026918;28;20377;-79
2022/08/04 01:07:17;;;;;;;;;;;;;;;;;;5024579;28;19925;-79
2022/08/04 01:10:03;;;;;;;;;;;;;;;;;;5026447;28;19917;-78
2022/08/04 01:12:50;;;;;;;;;;;;;;;;;;5024999;28;20883;-77
2022/08/04 01:15:36;;;;;;;;;;;;;;;;;;5028444;28;19924;-77
2022/08/04 01:18:23;;;;;;;;;;;;;;;;;;5018550;28;20369;-77
2022/08/04 01:21:09;;;;;;;;;;;;;;;;;;5029090;28;19960;-78
2022/08/04 01:23:56;;;;;;;;;;;;;;;;;;5016021;28;19916;-78
2022/08/04 01:26:42;;;;;;;;;;;;;;;;;;5030423;28;19920;-78
2022/08/04 01:29:28;;;;;;;;;;;;;;;;;;5028241;28;20048;-79
2022/08/04 01:32:15;;;;;;;;;;;;;;;;;;5029497;28;19924;-78
2022/08/04 01:35:01;;;;;;;;;;;;;;;;;;5028612;28;19913;-79
2022/08/04 01:37:48;;;;;;;;;;;;;;;;;;5030419;28;19909;-79
2022/08/04 01:40:35;;;;;;;;;;;;;;;;;;5029875;28;19916;-79
2022/08/04 01:43:21;;;;;;;;;;;;;;;;;;5029014;28;19913;-80
2022/08/04 01:46:08;;;;;;;;;;;;;;;;;;5030332;28;19915;-80
2022/08/04 01:48:54;;;;;;;;;;;;;;;;;;5024490;28;19928;-78
2022/08/04 01:51:41;;;;;;;;;;;;;;;;;;5015232;28;19914;-78
2022/08/04 01:54:27;;;;;;;;;;;;;;;;;;5028787;28;19916;-78
2022/08/04 01:57:14;;;;;;;;;;;;;;;;;;5019500;28;19945;-78
2022/08/04 02:00:00;;;;;;;;;;;;;;;;;;5027656;28;19920;-78
2022/08/04 02:02:47;;;;;;;;;;;;;;;;;;5030626;28;19920;-78
2022/08/04 02:05:33;;;;;;;;;;;;;;;;;;5023745;28;19909;-78
2022/08/04 02:08:19;;;;;;;;;;;;;;;;;;5024750;28;19926;-78
2022/08/04 02:11:06;;;;;;;;;;;;;;;;;;5018335;28;20256;-79
2022/08/04 02:13:52;;;;;;;;;;;;;;;;;;5028293;28;19916;-78
2022/08/04 02:16:39;;;;;;;;;;;;;;;;;;5029396;28;20509;-78
2022/08/04 02:19:25;;;;;;;;;;;;;;;;;;5021271;28;19920;-78
2022/08/04 02:22:12;;;;;;;;;;;;;;;;;;5027725;28;19920;-76
2022/08/04 02:24:58;;;;;;;;;;;;;;;;;;5018955;28;19917;-78
2022/08/04 02:27:45;;;;;;;;;;;;;;;;;;5020916;28;20391;-78
2022/08/04 02:30:31;;;;;;;;;;;;;;;;;;5018876;28;19923;-78
2022/08/04 02:33:18;;;;;;;;;;;;;;;;;;5020588;28;20226;-79
2022/08/04 02:36:04;;;;;;;;;;;;;;;;;;5016720;28;19921;-78
2022/08/04 02:38:51;;;;;;;;;;;;;;;;;;5013805;28;19913;-78
2022/08/04 02:41:38;;;;;;;;;;;;;;;;;;5010985;28;19913;-79
2022/08/04 02:44:25;;;;;;;;;;;;;;;;;;5025748;28;19920;-78
2022/08/04 02:47:11;;;;;;;;;;;;;;;;;;5025598;28;19913;-78
2022/08/04 02:49:58;;;;;;;;;;;;;;;;;;5026006;28;19921;-78
2022/08/04 02:52:44;;;;;;;;;;;;;;;;;;5025901;28;19917;-79
2022/08/04 02:55:31;;;;;;;;;;;;;;;;;;5022754;28;20462;-78
2022/08/04 02:58:17;;;;;;;;;;;;;;;;;;5022766;28;19918;-78
2022/08/04 03:01:04;;;;;;;;;;;;;;;;;;5022909;28;19919;-78
2022/08/04 03:03:50;;;;;;;;;;;;;;;;;;5006639;28;20576;-79
2022/08/04 03:06:37;;;;;;;;;;;;;;;;;;5010404;28;19928;-78
2022/08/04 03:09:23;;;;;;;;;;;;;;;;;;5025324;28;20273;-78
2022/08/04 03:12:10;;;;;;;;;;;;;;;;;;5023395;28;19924;-78
2022/08/04 03:14:56;;;;;;;;;;;;;;;;;;5019882;28;20304;-78
2022/08/04 03:17:42;;;;;;;;;;;;;;;;;;5020208;28;19924;-79
2022/08/04 03:20:29;;;;;;;;;;;;;;;;;;5020381;28;20428;-78
2022/08/04 03:23:15;;;;;;;;;;;;;;;;;;4999644;28;19910;-78
2022/08/04 03:26:02;;;;;;;;;;;;;;;;;;5027330;28;20372;-80
2022/08/04 03:28:48;;;;;;;;;;;;;;;;;;5009608;28;19925;-79
2022/08/04 03:31:35;;;;;;;;;;;;;;;;;;5021323;28;19916;-79
2022/08/04 03:34:21;;;;;;;;;;;;;;;;;;5028821;28;19936;-77
2022/08/04 03:37:08;;;;;;;;;;;;;;;;;;5021526;28;19920;-77
2022/08/04 03:39:54;;;;;;;;;;;;;;;;;;5013729;28;19916;-79
2022/08/04 03:42:41;;;;;;;;;;;;;;;;;;5022780;28;20281;-79
2022/08/04 03:45:27;;;;;;;;;;;;;;;;;;5021467;28;19920;-79
2022/08/04 03:48:14;;;;;;;;;;;;;;;;;;5024640;28;20381;-78
2022/08/04 03:54:05;;;;;;;;;;;;;;;;;;5026296;28;19909;-78
2022/08/04 03:56:52;;;;;;;;;;;;;;;;;;5027982;28;19917;-78
2022/08/04 03:59:38;;;;;;;;;;;;;;;;;;5027833;28;19920;-79
2022/08/04 04:02:25;;;;;;;;;;;;;;;;;;5030905;28;20392;-78
2022/08/04 04:05:11;;;;;;;;;;;;;;;;;;5026563;28;19913;-77
2022/08/04 04:07:59;;;;;;;;;;;;;;;;;;5028688;28;19931;-78
2022/08/04 04:10:45;;;;;;;;;;;;;;;;;;5032218;28;19986;-78
2022/08/04 04:13:31;;;;;;;;;;;;;;;;;;5022324;28;19917;-79
2022/08/04 04:16:18;;;;;;;;;;;;;;;;;;5028968;28;20262;-79
2022/08/04 04:19:04;;;;;;;;;;;;;;;;;;5027350;28;19916;-79
2022/08/04 04:21:51;;;;;;;;;;;;;;;;;;5028000;28;19940;-79
2022/08/04 04:24:37;;;;;;;;;;;;;;;;;;5025980;28;19917;-80
2022/08/04 04:27:24;;;;;;;;;;;;;;;;;;5031587;28;19913;-80
2022/08/04 04:30:10;;;;;;;;;;;;;;;;;;5030933;28;19925;-80
2022/08/04 04:32:57;;;;;;;;;;;;;;;;;;5033094;28;19920;-80
2022/08/04 04:35:43;;;;;;;;;;;;;;;;;;5031213;28;19909;-80
2022/08/04 04:38:30;;;;;;;;;;;;;;;;;;5031120;28;19909;-81
2022/08/04 04:41:16;;;;;;;;;;;;;;;;;;5027288;28;19913;-81
2022/08/04 04:44:03;;;;;;;;;;;;;;;;;;5027451;28;19917;-80
2022/08/04 04:46:49;;;;;;;;;;;;;;;;;;5027567;28;20480;-81
2022/08/04 04:49:36;;;;;;;;;;;;;;;;;;5025003;28;19943;-81
2022/08/04 04:52:22;;;;;;;;;;;;;;;;;;5030856;28;20341;-80
2022/08/04 04:55:09;;;;;;;;;;;;;;;;;;5025285;28;19925;-81
2022/08/04 04:57:55;;;;;;;;;;;;;;;;;;5021042;28;20364;-78
2022/08/04 05:00:42;;;;;;;;;;;;;;;;;;5019643;28;19917;-79
2022/08/04 05:03:28;;;;;;;;;;;;;;;;;;5028561;28;20255;-78
2022/08/04 05:06:15;;;;;;;;;;;;;;;;;;5024102;28;19920;-78
2022/08/04 05:09:01;;;;;;;;;;;;;;;;;;5024098;28;19928;-78
2022/08/04 05:11:48;;;;;;;;;;;;;;;;;;5017748;28;19909;-79
2022/08/04 05:14:34;;;;;;;;;;;;;;;;;;5005794;28;19916;-79
2022/08/04 05:17:20;;;;;;;;;;;;;;;;;;5026819;28;19913;-78
2022/08/04 05:20:07;;;;;;;;;;;;;;;;;;5023534;28;19917;-80
2022/08/04 05:22:53;;;;;;;;;;;;;;;;;;5025439;28;20566;-79
2022/08/04 05:25:40;;;;;;;;;;;;;;;;;;5025247;28;19920;-79
2022/08/04 05:28:26;;;;;;;;;;;;;;;;;;5029722;28;19944;-79
2022/08/04 05:31:13;;;;;;;;;;;;;;;;;;5022821;28;19916;-78
2022/08/04 05:33:59;;;;;;;;;;;;;;;;;;5023368;28;19917;-78
2022/08/04 05:36:46;;;;;;;;;;;;;;;;;;5027926;28;20461;-79
2022/08/04 05:39:34;;;;;;;;;;;;;;;;;;5019911;28;19924;-79
2022/08/04 05:42:20;;;;;;;;;;;;;;;;;;5025897;28;19943;-79
2022/08/04 05:45:07;;;;;;;;;;;;;;;;;;5015328;28;19913;-79
2022/08/04 05:47:53;;;;;;;;;;;;;;;;;;5029064;28;19909;-79
2022/08/04 05:50:40;;;;;;;;;;;;;;;;;;5030227;28;19928;-78
2022/08/04 05:53:26;;;;;;;;;;;;;;;;;;5015025;28;19924;-80
2022/08/04 05:56:13;;;;;;;;;;;;;;;;;;5027473;28;19925;-80
2022/08/04 05:58:59;;;;;;;;;;;;;;;;;;5026972;28;19909;-79
2022/08/04 06:01:46;;;;;;;;;;;;;;;;;;5030501;28;19909;-79
2022/08/04 06:04:32;;;;;;;;;;;;;;;;;;5020122;28;19916;-79
2022/08/04 06:07:19;;;;;;;;;;;;;;;;;;5028550;28;19967;-80
2022/08/04 06:10:06;;;;;;;;;;;;;;;;;;5022598;28;19917;-79
2022/08/04 06:12:52;;;;;;;;;;;;;;;;;;5014271;28;19913;-78
2022/08/04 06:15:39;;;;;;;;;;;;;;;;;;5024470;28;19910;-79
2022/08/04 06:18:25;;;;;;;;;;;;;;;;;;5027526;28;19913;-78
2022/08/04 06:21:12;;;;;;;;;;;;;;;;;;5019706;28;20266;-79
2022/08/04 06:24:00;;;;;;;;;;;;;;;;;;5016614;28;21815;-78
2022/08/04 06:26:46;;;;;;;;;;;;;;;;;;5007086;28;20394;-78
2022/08/04 06:29:39;;;;;;;;;;;;;;;;;;5022257;28;19943;-78
2022/08/04 06:32:46;;;;;;;;;;;;;;;;;;5022583;28;20203;-79
2022/08/04 06:35:32;;;;;;;;;;;;;;;;;;5020281;28;19941;-78
2022/08/04 06:38:19;;;;;;;;;;;;;;;;;;5028175;28;19917;-77
2022/08/04 06:41:08;;;;;;;;;;;;;;;;;;5012307;28;19920;-79
2022/08/04 06:43:54;;;;;;;;;;;;;;;;;;5024838;28;19920;-78
2022/08/04 06:46:41;;;;;;;;;;;;;;;;;;5028964;28;19913;-79
2022/08/04 06:49:27;;;;;;;;;;;;;;;;;;5021320;28;19921;-80
2022/08/04 06:52:16;;;;;;;;;;;;;;;;;;5024326;28;19917;-79
2022/08/04 06:55:02;;;;;;;;;;;;;;;;;;5022485;28;19916;-79
2022/08/04 06:57:49;;;;;;;;;;;;;;;;;;5026485;28;19909;-78
2022/08/04 07:00:35;;;;;;;;;;;;;;;;;;5019838;28;19913;-79
2022/08/04 07:03:22;;;;;;;;;;;;;;;;;;5024303;28;19925;-79
2022/08/04 07:06:08;;;;;;;;;;;;;;;;;;5005478;28;19920;-80
2022/08/04 07:08:55;;;;;;;;;;;;;;;;;;5025359;28;20582;-79
2022/08/04 07:11:41;;;;;;;;;;;;;;;;;;5024577;28;19921;-79
2022/08/04 07:14:28;;;;;;;;;;;;;;;;;;5022356;28;19913;-80
2022/08/04 07:17:15;;;;;;;;;;;;;;;;;;5023081;28;19913;-77
2022/08/04 07:20:02;;;;;;;;;;;;;;;;;;5021060;28;19923;-78
2022/08/04 07:22:48;;;;;;;;;;;;;;;;;;5022406;28;19913;-78
2022/08/04 07:25:35;;;;;;;;;;;;;;;;;;5003422;28;19924;-77
2022/08/04 07:28:21;;;;;;;;;;;;;;;;;;5022213;28;20329;-78
2022/08/04 07:31:08;;;;;;;;;;;;;;;;;;5017149;28;20020;-79
2022/08/04 07:33:54;;;;;;;;;;;;;;;;;;5023595;28;19928;-77
2022/08/04 07:36:41;;;;;;;;;;;;;;;;;;5026799;28;19927;-78
2022/08/04 07:39:27;;;;;;;;;;;;;;;;;;5026212;28;20292;-76
2022/08/04 07:42:14;;;;;;;;;;;;;;;;;;5027003;28;19921;-83
2022/08/04 07:45:01;;;;;;;;;;;;;;;;;;5024091;28;19921;-85
2022/08/04 07:47:47;;;;;;;;;;;;;;;;;;5026849;28;19921;-83
2022/08/04 07:50:34;;;;;;;;;;;;;;;;;;5010960;28;19932;-84
2022/08/04 07:53:22;;;;;;;;;;;;;;;;;;5025859;28;20392;-82
2022/08/04 07:56:08;;;;;;;;;;;;;;;;;;5025059;28;19924;-82
2022/08/04 07:58:55;;;;;;;;;;;;;;;;;;5023268;28;19924;-81
2022/08/04 08:01:41;;;;;;;;;;;;;;;;;;5023893;28;19921;-81
2022/08/04 08:04:28;;;;;;;;;;;;;;;;;;5009357;28;19913;-83
2022/08/04 08:07:14;;;;;;;;;;;;;;;;;;5023884;28;19936;-82
2022/08/04 08:10:01;;;;;;;;;;;;;;;;;;5025359;28;19929;-82
2022/08/04 08:12:47;;;;;;;;;;;;;;;;;;5025984;28;20289;-81
2022/08/04 08:15:34;;;;;;;;;;;;;;;;;;5025674;28;19917;-81
2022/08/04 08:18:20;;;;;;;;;;;;;;;;;;5025852;28;19921;-81
2022/08/04 08:21:07;;;;;;;;;;;;;;;;;;5030160;28;19917;-87
2022/08/04 08:23:53;;;;;;;;;;;;;;;;;;5030357;28;20391;-87
2022/08/04 08:26:40;;;;;;;;;;;;;;;;;;5028264;28;19921;-87
2022/08/04 08:29:26;;;;;;;;;;;;;;;;;;5029652;28;20019;-87
2022/08/04 08:32:13;;;;;;;;;;;;;;;;;;5030104;28;19920;-86
2022/08/04 08:34:59;;;;;;;;;;;;;;;;;;5030586;28;20951;-85
2022/08/04 08:37:46;;;;;;;;;;;;;;;;;;5029064;28;19944;-86
2022/08/04 08:40:32;;;;;;;;;;;;;;;;;;5029862;28;19920;-86
2022/08/04 08:43:19;;;;;;;;;;;;;;;;;;5033168;28;19913;-88
2022/08/04 08:46:05;;;;;;;;;;;;;;;;;;5031929;28;19919;-87
2022/08/04 08:48:52;;;;;;;;;;;;;;;;;;5030365;28;19925;-88
2022/08/04 08:51:38;;;;;;;;;;;;;;;;;;5031493;28;19962;-88
2022/08/04 08:54:25;;;;;;;;;;;;;;;;;;5034882;28;19923;-88
2022/08/04 08:57:11;;;;;;;;;;;;;;;;;;5031159;28;19944;-87
2022/08/04 08:59:58;;;;;;;;;;;;;;;;;;5036832;28;19917;-88
2022/08/04 09:02:44;;;;;;;;;;;;;;;;;;5036575;28;19921;-89
2022/08/04 09:05:31;;;;;;;;;;;;;;;;;;5038779;28;20020;-87
2022/08/04 09:08:17;;;;;;;;;;;;;;;;;;5035650;28;19921;-89
2022/08/04 09:11:04;;;;;;;;;;;;;;;;;;5015202;28;20232;-89
2022/08/04 09:13:50;;;;;;;;;;;;;;;;;;5030954;28;19925;-89
2022/08/04 09:16:37;;;;;;;;;;;;;;;;;;5029569;28;20380;-89
2022/08/04 09:19:23;;;;;;;;;;;;;;;;;;5029811;28;19909;-90
2022/08/04 09:22:10;;;;;;;;;;;;;;;;;;5028121;28;20498;-89
2022/08/04 09:24:57;;;;;;;;;;;;;;;;;;5032177;28;20016;-92
2022/08/04 09:27:44;;;;;;;;;;;;;;;;;;5027765;28;19919;-90
2022/08/04 09:30:30;;;;;;;;;;;;;;;;;;5027662;28;19928;-89
2022/08/04 09:33:17;;;;;;;;;;;;;;;;;;5033030;28;19921;-91
2022/08/04 09:36:03;;;;;;;;;;;;;;;;;;5028161;28;19913;-90
2022/08/04 09:38:49;;;;;;;;;;;;;;;;;;5028574;28;19920;-90
2022/08/04 09:41:36;;;;;;;;;;;;;;;;;;5026317;28;19917;-89
2022/08/04 09:44:22;;;;;;;;;;;;;;;;;;5029143;28;20015;-86
2022/08/04 09:47:09;;;;;;;;;;;;;;;;;;5033299;28;19920;-87
2022/08/04 09:49:55;;;;;;;;;;;;;;;;;;5030191;28;19925;-89
2022/08/04 09:52:42;;;;;;;;;;;;;;;;;;5026805;28;20662;-89
2022/08/04 09:55:29;;;;;;;;;;;;;;;;;;5032379;28;19928;-89
2022/08/04 09:58:15;;;;;;;;;;;;;;;;;;5029981;28;20645;-90
2022/08/04 10:01:02;;;;;;;;;;;;;;;;;;5029929;28;20477;-89
2022/08/04 10:03:48;;;;;;;;;;;;;;;;;;5025488;28;19919;-88
2022/08/04 10:06:35;;;;;;;;;;;;;;;;;;5010502;28;19920;-90
2022/08/04 10:09:21;;;;;;;;;;;;;;;;;;5025265;28;19921;-87
2022/08/04 10:12:08;;;;;;;;;;;;;;;;;;5026787;28;19931;-88
2022/08/04 10:14:55;;;;;;;;;;;;;;;;;;5026558;28;20377;-77
2022/08/04 10:17:42;;;;;;;;;;;;;;;;;;5021976;28;19928;-77
2022/08/04 10:20:28;;;;;;;;;;;;;;;;;;5006956;28;20365;-77
2022/08/04 10:23:15;;;;;;;;;;;;;;;;;;5023314;28;19917;-78
2022/08/04 10:26:01;;;;;;;;;;;;;;;;;;5022911;28;19935;-81
2022/08/04 10:28:48;;;;;;;;;;;;;;;;;;5024109;28;19917;-82
2022/08/04 10:31:35;;;;;;;;;;;;;;;;;;5022020;28;19913;-82
2022/08/04 10:34:21;;;;;;;;;;;;;;;;;;5020898;28;19924;-82
2022/08/04 10:37:08;;;;;;;;;;;;;;;;;;5023231;28;19913;-81
2022/08/04 10:43:00;;;;;;;;;;;;;;;;;;5023874;28;19917;-82
2022/08/04 10:45:46;;;;;;;;;;;;;;;;;;5020987;28;19976;-84
2022/08/04 10:48:33;;;;;;;;;;;;;;;;;;5008125;28;19913;-82
2022/08/04 10:51:20;;;;;;;;;;;;;;;;;;5023511;28;19917;-82
2022/08/04 10:54:06;;;;;;;;;;;;;;;;;;5023803;28;20427;-82
2022/08/04 10:56:53;;;;;;;;;;;;;;;;;;5024082;28;19920;-82
2022/08/04 10:59:39;;;;;;;;;;;;;;;;;;5022834;28;20528;-83
2022/08/04 11:02:26;;;;;;;;;;;;;;;;;;5023468;28;19920;-83
2022/08/04 11:05:12;;;;;;;;;;;;;;;;;;5022829;28;19917;-82
2022/08/04 11:07:59;;;;;;;;;;;;;;;;;;5017606;28;19947;-81
2022/08/04 11:10:45;;;;;;;;;;;;;;;;;;5016002;28;19925;-79
2022/08/04 11:13:32;;;;;;;;;;;;;;;;;;5022651;28;19921;-79
2022/08/04 11:16:19;;;;;;;;;;;;;;;;;;5014515;28;19917;-79
2022/08/04 11:19:06;;;;;;;;;;;;;;;;;;5020294;28;19924;-83
2022/08/04 11:21:52;;;;;;;;;;;;;;;;;;5019917;28;19971;-83
2022/08/04 11:24:39;;;;;;;;;;;;;;;;;;5017391;28;19913;-82
2022/08/04 11:27:25;;;;;;;;;;;;;;;;;;5013844;28;19937;-81
2022/08/04 11:30:12;;;;;;;;;;;;;;;;;;5014320;28;19929;-81
2022/08/04 11:32:58;;;;;;;;;;;;;;;;;;5014370;28;19924;-79
2022/08/04 11:35:45;;;;;;;;;;;;;;;;;;5014661;28;19913;-86
2022/08/04 11:38:31;;;;;;;;;;;;;;;;;;5017191;28;19923;-82
2022/08/04 11:40:57;;;;;;;;;;;;;;;;;;5010393;28;19929;-79
2022/08/04 11:43:24;;;;;;;;;;;;;;;;;;4988783;28;19972;-83
2022/08/04 11:45:50;;;;;;;;;;;;;;;;;;5002532;28;19992;-80
2022/08/04 11:48:16;;;;;;;;;;;;;;;;;;5011271;28;19971;-81
2022/08/04 11:50:42;;;;;;;;;;;;;;;;;;5007015;28;20531;-80
2022/08/04 11:53:09;;;;;;;;;;;;;;;;;;5014041;28;19917;-82
2022/08/04 11:55:35;;;;;;;;;;;;;;;;;;5015021;28;19987;-80
2022/08/04 11:58:01;;;;;;;;;;;;;;;;;;5010841;28;19957;-85
2022/08/04 12:00:27;;;;;;;;;;;;;;;;;;5010390;28;20465;-83
2022/08/04 12:02:54;;;;;;;;;;;;;;;;;;5010745;28;20034;-85
2022/08/04 12:05:20;;;;;;;;;;;;;;;;;;5011039;28;20611;-84
2022/08/04 12:07:46;;;;;;;;;;;;;;;;;;5036683;28;19968;-82
2022/08/04 12:10:12;;;;;;;;;;;;;;;;;;5042371;28;19956;-78
2022/08/04 12:12:38;;;;;;;;;;;;;;;;;;5041017;28;19979;-83
2022/08/04 12:15:05;;;;;;;;;;;;;;;;;;5039589;28;20015;-79
2022/08/04 12:17:31;;;;;;;;;;;;;;;;;;5040386;28;19963;-81
2022/08/04 12:19:57;;;;;;;;;;;;;;;;;;5040543;28;19944;-81
2022/08/04 12:22:24;;;;;;;;;;;;;;;;;;5045030;28;20357;-81
2022/08/04 12:24:50;;;;;;;;;;;;;;;;;;5044029;28;19971;-81
2022/08/04 12:27:16;;;;;;;;;;;;;;;;;;5045345;28;19967;-82
2022/08/04 12:29:42;;;;;;;;;;;;;;;;;;5046438;28;19925;-83
2022/08/04 12:32:09;;;;;;;;;;;;;;;;;;5026192;28;20466;-83
2022/08/04 12:34:35;;;;;;;;;;;;;;;;;;5044852;28;19996;-83
2022/08/04 12:37:01;;;;;;;;;;;;;;;;;;5042879;28;19967;-82
2022/08/04 12:39:27;;;;;;;;;;;;;;;;;;5045737;28;19948;-82
2022/08/04 12:41:53;;;;;;;;;;;;;;;;;;5025067;28;19960;-83
2022/08/04 12:44:20;;;;;;;;;;;;;;;;;;5027408;28;19963;-82
2022/08/04 12:46:47;;;;;;;;;;;;;;;;;;5042313;28;19983;-82
2022/08/04 12:49:13;;;;;;;;;;;;;;;;;;5025601;28;20011;-83
2022/08/04 12:51:39;;;;;;;;;;;;;;;;;;5041812;28;20388;-82
2022/08/04 12:54:05;;;;;;;;;;;;;;;;;;5042837;28;20335;-82
2022/08/04 12:56:31;;;;;;;;;;;;;;;;;;5025536;28;19920;-85
2022/08/04 12:58:57;;;;;;;;;;;;;;;;;;5043338;28;20459;-83
2022/08/04 13:01:24;;;;;;;;;;;;;;;;;;5044920;28;19948;-83
2022/08/04 13:03:50;;;;;;;;;;;;;;;;;;5045583;28;20454;-84
2022/08/04 13:06:16;;;;;;;;;;;;;;;;;;5047729;28;19968;-84
2022/08/04 13:08:43;;;;;;;;;;;;;;;;;;5030616;28;19928;-82
2022/08/04 13:11:10;;;;;;;;;;;;;;;;;;5041875;28;20471;-82
2022/08/04 13:13:36;;;;;;;;;;;;;;;;;;5046790;28;19964;-82
2022/08/04 13:16:02;;;;;;;;;;;;;;;;;;5048341;28;20222;-81
2022/08/04 13:18:29;;;;;;;;;;;;;;;;;;5046917;28;19952;-82
2022/08/04 13:20:55;;;;;;;;;;;;;;;;;;5044367;28;19952;-83
2022/08/04 13:23:22;;;;;;;;;;;;;;;;;;5050612;28;19963;-83
2022/08/04 13:25:48;;;;;;;;;;;;;;;;;;5044353;28;20096;-82
2022/08/04 13:28:14;;;;;;;;;;;;;;;;;;5050697;28;19947;-82
2022/08/04 13:30:40;;;;;;;;;;;;;;;;;;5031719;28;19968;-82
2022/08/04 13:33:06;;;;;;;;;;;;;;;;;;5056754;28;19948;-83
2022/08/04 13:35:33;;;;;;;;;;;;;;;;;;5045381;28;19976;-82
2022/08/04 13:37:59;;;;;;;;;;;;;;;;;;5042299;28;20381;-82
2022/08/04 13:40:25;;;;;;;;;;;;;;;;;;5037266;28;19964;-82
2022/08/04 13:42:51;;;;;;;;;;;;;;;;;;5026103;28;19944;-82
2022/08/04 13:45:17;;;;;;;;;;;;;;;;;;5049313;28;19951;-83
2022/08/04 13:47:44;;;;;;;;;;;;;;;;;;5048596;28;19952;-81
2022/08/04 13:50:10;;;;;;;;;;;;;;;;;;5048159;28;19960;-82
2022/08/04 13:52:36;;;;;;;;;;;;;;;;;;5047709;28;19944;-82
2022/08/04 13:55:02;;;;;;;;;;;;;;;;;;5052281;28;19998;-82
2022/08/04 13:57:29;;;;;;;;;;;;;;;;;;5045120;28;19963;-82
2022/08/04 13:59:55;;;;;;;;;;;;;;;;;;5049105;28;20026;-83
2022/08/04 14:02:21;;;;;;;;;;;;;;;;;;5053570;28;19960;-82
2022/08/04 14:04:47;;;;;;;;;;;;;;;;;;5050194;28;19952;-81
2022/08/04 14:07:13;;;;;;;;;;;;;;;;;;5041951;28;20411;-81
2022/08/04 14:09:40;;;;;;;;;;;;;;;;;;5045399;28;19964;-82
2022/08/04 14:12:06;;;;;;;;;;;;;;;;;;5044144;28;19955;-82
2022/08/04 14:14:32;;;;;;;;;;;;;;;;;;5053340;28;19948;-83
2022/08/04 14:16:59;;;;;;;;;;;;;;;;;;5027457;28;20298;-81
2022/08/04 14:19:25;;;;;;;;;;;;;;;;;;5046685;28;20341;-82
2022/08/04 14:21:51;;;;;;;;;;;;;;;;;;5029445;28;19998;-82
2022/08/04 14:24:17;;;;;;;;;;;;;;;;;;5046239;28;19963;-83
2022/08/04 14:26:43;;;;;;;;;;;;;;;;;;5050335;28;19964;-82
2022/08/04 14:29:10;;;;;;;;;;;;;;;;;;5032184;28;21400;-83
2022/08/04 14:31:36;;;;;;;;;;;;;;;;;;5031254;28;19952;-82
2022/08/04 14:34:02;;;;;;;;;;;;;;;;;;5043275;28;19956;-81
2022/08/04 14:36:28;;;;;;;;;;;;;;;;;;5047354;28;19936;-81
2022/08/04 14:38:54;;;;;;;;;;;;;;;;;;5048197;28;19963;-82
2022/08/04 14:41:21;;;;;;;;;;;;;;;;;;5049517;28;19916;-82
2022/08/04 14:43:47;;;;;;;;;;;;;;;;;;5053575;28;19956;-82
2022/08/04 14:46:13;;;;;;;;;;;;;;;;;;5057273;28;19916;-83
2022/08/04 14:48:40;;;;;;;;;;;;;;;;;;5032409;28;19948;-83
2022/08/04 14:51:06;;;;;;;;;;;;;;;;;;5033279;28;20471;-82
2022/08/04 14:53:32;;;;;;;;;;;;;;;;;;5047051;28;19951;-82
2022/08/04 14:55:58;;;;;;;;;;;;;;;;;;5045253;28;20365;-82
2022/08/04 14:58:24;;;;;;;;;;;;;;;;;;5057325;28;19963;-82
2022/08/04 15:00:51;;;;;;;;;;;;;;;;;;5047317;28;19956;-82
2022/08/04 15:03:17;;;;;;;;;;;;;;;;;;5044519;28;19959;-80
2022/08/04 15:05:43;;;;;;;;;;;;;;;;;;5033361;28;20006;-82
2022/08/04 15:08:09;;;;;;;;;;;;;;;;;;5049309;28;20504;-82
2022/08/04 15:10:35;;;;;;;;;;;;;;;;;;5045586;28;19971;-83
2022/08/04 15:13:02;;;;;;;;;;;;;;;;;;5046704;28;19952;-82
2022/08/04 15:15:28;;;;;;;;;;;;;;;;;;5046437;28;19958;-82
2022/08/04 15:17:54;;;;;;;;;;;;;;;;;;5042059;28;19940;-81
2022/08/04 15:20:20;;;;;;;;;;;;;;;;;;5048390;28;20028;-83
2022/08/04 15:22:46;;;;;;;;;;;;;;;;;;5052386;28;19967;-83
2022/08/04 15:25:12;;;;;;;;;;;;;;;;;;5038300;28;20062;-82
2022/08/04 15:27:39;;;;;;;;;;;;;;;;;;5022490;28;19956;-81
2022/08/04 15:30:05;;;;;;;;;;;;;;;;;;5047570;28;19956;-83
2022/08/04 15:32:31;;;;;;;;;;;;;;;;;;5048369;28;19948;-83
2022/08/04 15:34:57;;;;;;;;;;;;;;;;;;5051532;28;19945;-81
2022/08/04 15:37:23;;;;;;;;;;;;;;;;;;5053743;28;19959;-82
2022/08/04 15:39:50;;;;;;;;;;;;;;;;;;5040369;28;20399;-81
2022/08/04 15:42:16;;;;;;;;;;;;;;;;;;5046591;28;19964;-82
2022/08/04 15:44:42;;;;;;;;;;;;;;;;;;5047363;28;19948;-83
2022/08/04 15:47:08;;;;;;;;;;;;;;;;;;5050114;28;19948;-82
2022/08/04 15:49:36;;;;;;;;;;;;;;;;;;5051222;28;19978;-82
2022/08/04 15:52:03;;;;;;;;;;;;;;;;;;5048895;28;20585;-83
2022/08/04 15:54:29;;;;;;;;;;;;;;;;;;5041533;28;19960;-81
2022/08/04 15:56:55;;;;;;;;;;;;;;;;;;5049949;28;19962;-81
2022/08/04 15:59:21;;;;;;;;;;;;;;;;;;5047616;28;20401;-81
2022/08/04 16:01:47;;;;;;;;;;;;;;;;;;5048721;28;19955;-82
2022/08/04 16:04:14;;;;;;;;;;;;;;;;;;5046665;28;19952;-83
2022/08/04 16:06:40;;;;;;;;;;;;;;;;;;5047099;28;19956;-81
2022/08/04 16:09:06;;;;;;;;;;;;;;;;;;5050495;28;19944;-82
2022/08/04 16:11:33;;;;;;;;;;;;;;;;;;5056419;28;19979;-83
2022/08/04 16:14:03;;;;;;;;;;;;;;;;;;5043796;28;20369;-82
2022/08/04 16:16:30;;;;;;;;;;;;;;;;;;5050532;28;19959;-84
2022/08/04 16:18:56;;;;;;;;;;;;;;;;;;5052254;28;19956;-82
2022/08/04 16:21:22;;;;;;;;;;;;;;;;;;5049033;28;19944;-83
2022/08/04 16:23:48;;;;;;;;;;;;;;;;;;5047226;28;19966;-83
2022/08/04 16:26:15;;;;;;;;;;;;;;;;;;5049140;28;19991;-84
2022/08/04 16:28:41;;;;;;;;;;;;;;;;;;5048153;28;19949;-84
2022/08/04 16:31:08;;;;;;;;;;;;;;;;;;5055748;28;19924;-83
2022/08/04 16:33:34;;;;;;;;;;;;;;;;;;5053546;28;20373;-83
2022/08/04 16:36:00;;;;;;;;;;;;;;;;;;5028307;28;19960;-83
2022/08/04 16:38:26;;;;;;;;;;;;;;;;;;5046747;28;19964;-83
2022/08/04 16:40:52;;;;;;;;;;;;;;;;;;5045505;28;20020;-83
2022/08/04 16:43:21;;;;;;;;;;;;;;;;;;5049127;28;20328;-82
2022/08/04 16:45:48;;;;;;;;;;;;;;;;;;5050209;28;19940;-83
2022/08/04 16:48:14;;;;;;;;;;;;;;;;;;5048834;28;20009;-81
2022/08/04 16:50:40;;;;;;;;;;;;;;;;;;5045862;28;19997;-81
2022/08/04 16:53:06;;;;;;;;;;;;;;;;;;5049670;28;20015;-83
2022/08/04 16:55:32;;;;;;;;;;;;;;;;;;5048870;28;19952;-83
2022/08/04 16:57:59;;;;;;;;;;;;;;;;;;5046315;28;19960;-83
2022/08/04 17:00:25;;;;;;;;;;;;;;;;;;5048526;28;20413;-82
2022/08/04 17:02:51;;;;;;;;;;;;;;;;;;5045738;28;20005;-83
2022/08/04 17:05:17;;;;;;;;;;;;;;;;;;5031162;28;20039;-83
2022/08/04 17:07:43;;;;;;;;;;;;;;;;;;5026223;28;20022;-82
2022/08/04 17:10:10;;;;;;;;;;;;;;;;;;5026300;28;20426;-83
2022/08/04 17:12:36;;;;;;;;;;;;;;;;;;5027363;28;20353;-82
2022/08/04 17:15:02;;;;;;;;;;;;;;;;;;5024613;28;19960;-83
2022/08/04 17:17:28;;;;;;;;;;;;;;;;;;5028065;28;19968;-83
2022/08/04 17:19:54;;;;;;;;;;;;;;;;;;5027029;28;19948;-83
2022/08/04 17:22:21;;;;;;;;;;;;;;;;;;5026495;28;19949;-83
2022/08/04 17:24:48;;;;;;;;;;;;;;;;;;5026918;28;20342;-83
2022/08/04 17:27:16;;;;;;;;;;;;;;;;;;5024278;28;20112;-83
2022/08/04 17:29:42;;;;;;;;;;;;;;;;;;5023180;28;19973;-84
2022/08/04 17:32:08;;;;;;;;;;;;;;;;;;5024453;28;19957;-83
2022/08/04 17:34:34;;;;;;;;;;;;;;;;;;5026365;28;19957;-84
2022/08/04 17:37:01;;;;;;;;;;;;;;;;;;5025276;28;19979;-82
2022/08/04 17:39:29;;;;;;;;;;;;;;;;;;5027223;28;19960;-83
2022/08/04 17:41:55;;;;;;;;;;;;;;;;;;5026542;28;19961;-83
2022/08/04 17:44:22;;;;;;;;;;;;;;;;;;5022095;28;19952;-83
2022/08/04 17:46:48;;;;;;;;;;;;;;;;;;5027090;28;20416;-83
2022/08/04 17:49:17;;;;;;;;;;;;;;;;;;5024096;28;19964;-83
2022/08/04 17:51:45;;;;;;;;;;;;;;;;;;5023127;28;19957;-82
2022/08/04 17:54:12;;;;;;;;;;;;;;;;;;5018455;28;20693;-83
2022/08/04 17:56:38;;;;;;;;;;;;;;;;;;5022713;28;20633;-82
2022/08/04 17:59:04;;;;;;;;;;;;;;;;;;5024859;28;19932;-83
2022/08/04 18:01:30;;;;;;;;;;;;;;;;;;5023021;28;20330;-83
2022/08/04 18:03:58;;;;;;;;;;;;;;;;;;5024222;28;19959;-84
2022/08/04 18:06:24;;;;;;;;;;;;;;;;;;5027590;28;19948;-83
2022/08/04 18:08:50;;;;;;;;;;;;;;;;;;5043119;28;20342;-83